Flight Track Log - Related Links

Times and Time Zones

All times are in EDT time to prevent confusion due to time zone crossing. See the KCE2 flight status page for this flight to view local times or setup timezone preferences in your user account.

Time Position Orientation Groundspeed Altitude Reporting Facility
EDT Latitude Longitude Course Direction KTS MPH feet Rate Location/Type
Wed 04:11:57 PM 45.2080 -65.7540 234° Southwest 249 287 12,500  Level FlightAware ADS-B
Wed 04:12:42 PM 45.1790 -65.8210 238° Southwest 276 318 15,300 3,318 Climbing FlightAware ADS-B
Wed 04:13:22 PM 45.1530 -65.8880 241° Southwest 310 357 17,200 2,625 Climbing FlightAware ADS-B
Wed 04:14:02 PM 45.1240 -65.9650 242° Southwest 341 392 18,800 2,471 Climbing FlightAware ADS-B
Wed 04:14:47 PM 45.0890 -66.0550 241° Southwest 358 412 20,700 2,753 Climbing FlightAware ADS-B
Wed 04:15:27 PM 45.0570 -66.1370 241° Southwest 364 419 22,700 2,965 Climbing FlightAware ADS-B
Wed 04:16:12 PM 45.0210 -66.2320 242° Southwest 359 413 24,900 2,965 Climbing FlightAware ADS-B
Wed 04:16:52 PM 44.9890 -66.3140 241° Southwest 355 409 26,900 3,000 Climbing FlightAware ADS-B
Wed 04:17:32 PM 44.9570 -66.3960 241° Southwest 349 402 28,900 2,753 Climbing FlightAware ADS-B
Wed 04:18:17 PM 44.9220 -66.4850 241° Southwest 350 403 30,800 2,259 Climbing FlightAware ADS-B
Wed 04:18:57 PM 44.8900 -66.5670 241° Southwest 363 418 32,100 1,950 Climbing FlightAware ADS-B
Wed 04:19:37 PM 44.8570 -66.6510 241° Southwest 370 426 33,400 1,694 Climbing FlightAware ADS-B
Wed 04:20:22 PM 44.8190 -66.7470 241° Southwest 380 437 34,500 1,482 Climbing FlightAware ADS-B
Wed 04:21:02 PM 44.7840 -66.8360 241° Southwest 387 445 35,500 1,059 Climbing FlightAware ADS-B
Wed 04:21:47 PM 44.7440 -66.9370 241° Southwest 408 470 36,000 353 Climbing FlightAware ADS-B
Wed 04:22:27 PM 44.7050 -67.0330 240° Southwest 428 493 36,000  Level FlightAware ADS-B
Wed 04:23:07 PM 44.6660 -67.1320 241° Southwest 426 490 36,000  Level FlightAware ADS-B
Wed 04:23:52 PM 44.6230 -67.2400 241° Southwest 424 488 36,000  Level FlightAware ADS-B
Wed 04:24:32 PM 44.5840 -67.3360 240° Southwest 424 488 36,000  Level FlightAware ADS-B
Wed 04:25:17 PM 44.5410 -67.4420 240° Southwest 421 484 36,000  Level FlightAware ADS-B
Wed 04:25:57 PM 44.5010 -67.5400 240° Southwest 419 482 36,000  Level FlightAware ADS-B
Wed 04:26:42 PM 44.4590 -67.6430 240° Southwest 417 480 36,000  Level FlightAware ADS-B
Wed 04:27:22 PM 44.4220 -67.7350 241° Southwest 419 482 36,000  Level FlightAware ADS-B
Wed 04:28:02 PM 44.3840 -67.8280 240° Southwest 419 482 36,000  Level FlightAware ADS-B
Wed 04:28:47 PM 44.3390 -67.9360 240° Southwest 420 483 36,000  Level FlightAware ADS-B
Wed 04:29:27 PM 44.3010 -68.0290 240° Southwest 422 486 36,000  Level FlightAware ADS-B
Wed 04:30:12 PM 44.2570 -68.1340 240° Southwest 423 487 36,000  Level FlightAware ADS-B
Wed 04:30:52 PM 44.2170 -68.2320 240° Southwest 423 487 36,000  Level FlightAware ADS-B
Wed 04:31:32 PM 44.1780 -68.3240 239° Southwest 425 489 36,000  Level FlightAware ADS-B
Wed 04:32:17 PM 44.1350 -68.4270 240° Southwest 425 489 36,000  Level FlightAware ADS-B
Wed 04:32:57 PM 44.0930 -68.5270 240° Southwest 427 491 36,000  Level FlightAware ADS-B
Wed 04:33:37 PM 44.0530 -68.6230 240° Southwest 426 490 36,000  Level FlightAware ADS-B
Wed 04:34:22 PM 44.0120 -68.7210 240° Southwest 426 490 36,000  Level FlightAware ADS-B
Wed 04:35:07 PM 43.9690 -68.8180 238° Southwest 426 490 36,000  Level FlightAware ADS-B
Wed 04:35:47 PM 43.9350 -68.8980 239° Southwest 426 490 36,000 -171 Level FlightAware ADS-B
Wed 04:36:52 PM 43.8640 -69.0680 240° Southwest 421 484 35,700 -171 Descending FlightAware ADS-B
Wed 04:37:32 PM 43.8310 -69.1470 240° Southwest 421 484 35,700  Level FlightAware ADS-B
Wed 04:38:22 PM 43.7900 -69.2460 240° Southwest 421 484 35,700 -2,815 Level FlightAware ADS-B
Wed 04:39:42 PM 43.6900 -69.4700 238° Southwest 434 499 29,600 -4,512 Descending FlightAware ADS-B
Wed 04:40:27 PM 43.6360 -69.5940 239° Southwest 423 487 26,300 -3,459 Descending FlightAware ADS-B
Wed 04:41:07 PM 43.5980 -69.6820 239° Southwest 414 476 24,700 -2,400 Descending FlightAware ADS-B
Wed 04:41:52 PM 43.5540 -69.7820 239° Southwest 399 459 22,900 -2,329 Descending FlightAware ADS-B
Wed 04:42:32 PM 43.5160 -69.8670 238° Southwest 383 441 21,400 -2,188 Descending FlightAware ADS-B
Wed 04:43:17 PM 43.4750 -69.9600 239° Southwest 362 417 19,800 -2,047 Descending FlightAware ADS-B
Wed 04:43:57 PM 43.4400 -70.0400 239° Southwest 361 415 18,500 -1,950 Descending FlightAware ADS-B
Wed 04:44:37 PM 43.4060 -70.1170 239° Southwest 368 423 17,200 -1,950 Descending FlightAware ADS-B
Wed 04:45:17 PM 43.3700 -70.1970 238° Southwest 368 423 15,900 -1,976 Descending FlightAware ADS-B
Wed 04:46:02 PM 43.3310 -70.2860 239° Southwest 360 414 14,400 -2,000 Descending FlightAware ADS-B
Wed 04:46:47 PM 43.2920 -70.3720 238° Southwest 352 405 12,900 -2,047 Descending FlightAware ADS-B
Wed 04:47:27 PM 43.2580 -70.4480 238° Southwest 348 400 11,500 -1,425 Descending FlightAware ADS-B
Wed 04:48:07 PM 43.2250 -70.5200 238° Southwest 340 391 11,000 -375 Descending FlightAware ADS-B
Wed 04:48:47 PM 43.1920 -70.5950 239° Southwest 339 390 11,000 -353 Level FlightAware ADS-B
Wed 04:49:32 PM 43.1550 -70.6750 238° Southwest 310 357 10,500 -857 Descending FlightAware ADS-B
Wed 04:49:57 PM 43.1380 -70.7140 239° Southwest 290 334 10,000 -1,333 Descending FlightAware ADS-B
Wed 04:50:17 PM 43.1240 -70.7450 238° Southwest 282 325 9,500 -1,733 Descending FlightAware ADS-B
Wed 04:50:42 PM 43.1060 -70.7840 238° Southwest 284 327 8,700 -1,745 Descending FlightAware ADS-B
Wed 04:51:12 PM 43.0820 -70.8280 233° Southwest 291 335 7,900 -1,636 Descending FlightAware ADS-B
Wed 04:51:37 PM 43.0550 -70.8540 215° Southwest 294 338 7,200 -1,745 Descending FlightAware ADS-B
Wed 04:52:07 PM 43.0190 -70.8820 210° Southwest 294 338 6,300 -1,800 Descending FlightAware ADS-B
Wed 04:52:37 PM 42.9840 -70.9090 209° Southwest 289 333 5,400 -1,700 Descending FlightAware ADS-B
Wed 04:53:07 PM 42.9510 -70.9340 209° Southwest 284 327 4,600 -1,636 Descending FlightAware ADS-B
Wed 04:53:32 PM 42.9210 -70.9570 209° Southwest 279 321 3,900 -1,636 Descending FlightAware ADS-B
Wed 04:54:02 PM 42.8870 -70.9830 209° Southwest 274 315 3,100 -982 Descending FlightAware ADS-B
Wed 04:54:27 PM 42.8600 -71.0030 209° Southwest 270 311 3,000 -150 Descending FlightAware ADS-B
Wed 04:54:42 PM 42.8430 -71.0170 211° Southwest 269 310 3,000  Level FlightAware ADS-B
Wed 04:55:12 PM 42.8130 -71.0430 212° Southwest 266 306 3,000  Level FlightAware ADS-B
Wed 04:55:37 PM 42.7950 -71.0760 233° Southwest 266 306 3,000  Level FlightAware ADS-B
Wed 04:55:57 PM 42.7810 -71.1040 236° Southwest 266 306 3,000  Level FlightAware ADS-B
Wed 04:56:17 PM 42.7670 -71.1320 236° Southwest 266 306 3,000  Level FlightAware ADS-B
Wed 04:56:47 PM 42.7460 -71.1730 235° Southwest 265 305 3,000  Level FlightAware ADS-B
Wed 04:57:17 PM 42.7250 -71.2130 234° Southwest 265 305 3,000  Level FlightAware ADS-B
Wed 04:57:42 PM 42.7070 -71.2490 236° Southwest 265 305 3,000  Level FlightAware ADS-B
Wed 04:58:12 PM 42.6860 -71.2910 236° Southwest 269 310 3,000  Level FlightAware ADS-B
Wed 04:58:37 PM 42.6690 -71.3240 235° Southwest 271 312 3,000  Level FlightAware ADS-B
Wed 04:58:52 PM 42.6570 -71.3470 235° Southwest 272 313 3,000  Level FlightAware ADS-B
Wed 04:59:22 PM 42.6360 -71.3900 236° Southwest 271 312 3,000  Level FlightAware ADS-B
Wed 04:59:47 PM 42.6190 -71.4240 236° Southwest 270 311 3,000  Level FlightAware ADS-B
Wed 05:00:17 PM 42.5980 -71.4650 235° Southwest 269 310 3,000  Level FlightAware ADS-B
Wed 05:00:47 PM 42.5780 -71.5070 237° Southwest 260 299 3,000 -327 Level FlightAware ADS-B
Wed 05:01:12 PM 42.5560 -71.5310 219° Southwest 238 274 2,700 -1,080 Descending FlightAware ADS-B
Wed 05:01:37 PM 42.5310 -71.5400 195° South 236 272 2,100 -764 Descending FlightAware ADS-B
Wed 05:02:07 PM 42.5050 -71.5360 174° South 217 250 2,000 -133 Descending FlightAware ADS-B
Wed 05:02:22 PM 42.4940 -71.5180 130° Southeast 201 231 2,000  Level FlightAware ADS-B
Wed 05:02:52 PM 42.4890 -71.4790 100° East 195 224 2,000  Level FlightAware ADS-B
Wed 05:03:17 PM 42.4860 -71.4500 98° East 191 220 2,000  Level FlightAware ADS-B
Wed 05:03:42 PM 42.4830 -71.4210 98° East 191 220 2,000 -120 Level FlightAware ADS-B
Wed 05:04:07 PM 42.4810 -71.3930 96° East 189 217 1,900 -600 Descending FlightAware ADS-B
Wed 05:04:42 PM 42.4790 -71.3540 94° East 165 190 1,400 -720 Descending FlightAware ADS-B
Wed 05:05:22 PM 42.4730 -71.3170 102° East 146 168 1,000 -600 Descending FlightAware ADS-B
Wed 05:12:00 PM 42.4667 -71.2833 144° Southeast  Level FlightAware Approximate
Wed 05:13:00 PM 42.4699 -71.2890 144° Southeast  Level Estimated

Login

Don't have an account? Register now (free) for customized features, flight alerts, and more!